sensor_id;sensor_type;location;lat;lon;timestamp;temperature;humidity
14049;DHT22;7099;53.922;10.728;2023-10-13T00:02:45;9.80;95.50
14049;DHT22;7099;53.922;10.728;2023-10-13T00:06:52;9.90;95.80
14049;DHT22;7099;53.922;10.728;2023-10-13T00:11:11;9.90;95.60
14049;DHT22;7099;53.922;10.728;2023-10-13T00:15:17;10.00;95.70
14049;DHT22;7099;53.922;10.728;2023-10-13T00:19:29;10.10;96.00
14049;DHT22;7099;53.922;10.728;2023-10-13T00:23:44;10.20;95.70
14049;DHT22;7099;53.922;10.728;2023-10-13T00:27:59;10.20;95.80
14049;DHT22;7099;53.922;10.728;2023-10-13T00:32:06;10.20;95.80
14049;DHT22;7099;53.922;10.728;2023-10-13T00:36:17;10.30;95.90
14049;DHT22;7099;53.922;10.728;2023-10-13T00:40:25;10.30;95.90
14049;DHT22;7099;53.922;10.728;2023-10-13T00:44:37;10.40;95.90
14049;DHT22;7099;53.922;10.728;2023-10-13T00:48:47;10.50;96.00
14049;DHT22;7099;53.922;10.728;2023-10-13T00:52:59;10.50;96.10
14049;DHT22;7099;53.922;10.728;2023-10-13T00:57:06;10.60;96.20
14049;DHT22;7099;53.922;10.728;2023-10-13T01:01:31;10.60;96.20
14049;DHT22;7099;53.922;10.728;2023-10-13T01:05:42;10.70;96.20
14049;DHT22;7099;53.922;10.728;2023-10-13T01:09:47;10.70;96.30
14049;DHT22;7099;53.922;10.728;2023-10-13T01:13:53;10.80;96.50
14049;DHT22;7099;53.922;10.728;2023-10-13T01:18:08;10.90;96.50
14049;DHT22;7099;53.922;10.728;2023-10-13T01:22:22;10.90;96.60
14049;DHT22;7099;53.922;10.728;2023-10-13T01:26:28;11.00;96.50
14049;DHT22;7099;53.922;10.728;2023-10-13T01:30:34;11.10;96.70
14049;DHT22;7099;53.922;10.728;2023-10-13T01:34:43;11.10;96.90
14049;DHT22;7099;53.922;10.728;2023-10-13T01:38:52;11.20;96.90
14049;DHT22;7099;53.922;10.728;2023-10-13T01:42:58;11.20;97.20
14049;DHT22;7099;53.922;10.728;2023-10-13T01:47:04;11.40;97.10
14049;DHT22;7099;53.922;10.728;2023-10-13T01:51:13;11.40;97.10
14049;DHT22;7099;53.922;10.728;2023-10-13T01:55:19;11.50;97.20
14049;DHT22;7099;53.922;10.728;2023-10-13T01:59:25;11.50;97.30
14049;DHT22;7099;53.922;10.728;2023-10-13T02:03:32;11.60;97.40
14049;DHT22;7099;53.922;10.728;2023-10-13T02:07:37;11.70;97.40
14049;DHT22;7099;53.922;10.728;2023-10-13T02:11:50;11.70;97.40
14049;DHT22;7099;53.922;10.728;2023-10-13T02:15:59;11.80;97.40
14049;DHT22;7099;53.922;10.728;2023-10-13T02:20:10;11.90;97.50
14049;DHT22;7099;53.922;10.728;2023-10-13T02:24:20;11.90;97.50
14049;DHT22;7099;53.922;10.728;2023-10-13T02:28:34;12.00;97.70
14049;DHT22;7099;53.922;10.728;2023-10-13T02:32:41;12.00;97.60
14049;DHT22;7099;53.922;10.728;2023-10-13T02:36:49;12.10;97.60
14049;DHT22;7099;53.922;10.728;2023-10-13T02:40:55;12.10;97.60
14049;DHT22;7099;53.922;10.728;2023-10-13T02:45:01;12.20;97.60
14049;DHT22;7099;53.922;10.728;2023-10-13T02:49:09;12.20;97.60
14049;DHT22;7099;53.922;10.728;2023-10-13T02:53:16;12.30;97.60
14049;DHT22;7099;53.922;10.728;2023-10-13T02:57:23;12.30;97.60
14049;DHT22;7099;53.922;10.728;2023-10-13T03:01:29;12.40;97.60
14049;DHT22;7099;53.922;10.728;2023-10-13T03:05:39;12.40;97.60
14049;DHT22;7099;53.922;10.728;2023-10-13T03:09:45;12.40;97.70
14049;DHT22;7099;53.922;10.728;2023-10-13T03:13:57;12.50;97.80
14049;DHT22;7099;53.922;10.728;2023-10-13T03:18:03;12.50;97.70
14049;DHT22;7099;53.922;10.728;2023-10-13T03:22:10;12.50;97.80
14049;DHT22;7099;53.922;10.728;2023-10-13T03:26:22;12.60;97.80
14049;DHT22;7099;53.922;10.728;2023-10-13T03:30:27;12.60;97.90
14049;DHT22;7099;53.922;10.728;2023-10-13T03:34:47;12.70;98.00
14049;DHT22;7099;53.922;10.728;2023-10-13T03:39:00;12.70;98.10
14049;DHT22;7099;53.922;10.728;2023-10-13T03:43:05;12.70;98.10
14049;DHT22;7099;53.922;10.728;2023-10-13T03:47:17;12.80;98.10
14049;DHT22;7099;53.922;10.728;2023-10-13T03:51:32;12.80;98.20
14049;DHT22;7099;53.922;10.728;2023-10-13T03:55:39;12.80;98.40
14049;DHT22;7099;53.922;10.728;2023-10-13T03:59:53;12.90;98.40
14049;DHT22;7099;53.922;10.728;2023-10-13T04:04:01;12.90;98.40
14049;DHT22;7099;53.922;10.728;2023-10-13T04:08:15;13.00;98.50
14049;DHT22;7099;53.922;10.728;2023-10-13T04:12:32;13.00;98.40
14049;DHT22;7099;53.922;10.728;2023-10-13T04:16:56;13.10;98.50
14049;DHT22;7099;53.922;10.728;2023-10-13T04:21:03;13.10;98.70
14049;DHT22;7099;53.922;10.728;2023-10-13T04:25:25;13.10;98.70
14049;DHT22;7099;53.922;10.728;2023-10-13T04:30:04;13.20;98.80
14049;DHT22;7099;53.922;10.728;2023-10-13T04:34:13;13.30;98.80
14049;DHT22;7099;53.922;10.728;2023-10-13T04:38:25;13.30;98.90
14049;DHT22;7099;53.922;10.728;2023-10-13T04:42:38;13.40;98.90
14049;DHT22;7099;53.922;10.728;2023-10-13T04:46:44;13.40;99.00
14049;DHT22;7099;53.922;10.728;2023-10-13T04:50:51;13.50;99.10
14049;DHT22;7099;53.922;10.728;2023-10-13T04:55:03;13.50;99.10
14049;DHT22;7099;53.922;10.728;2023-10-13T04:59:48;13.50;99.20
14049;DHT22;7099;53.922;10.728;2023-10-13T05:04:09;13.60;99.20
14049;DHT22;7099;53.922;10.728;2023-10-13T05:08:27;13.60;99.20
14049;DHT22;7099;53.922;10.728;2023-10-13T05:12:52;13.70;99.30
14049;DHT22;7099;53.922;10.728;2023-10-13T05:17:16;13.70;99.40
14049;DHT22;7099;53.922;10.728;2023-10-13T05:21:40;13.80;99.40
14049;DHT22;7099;53.922;10.728;2023-10-13T05:26:05;13.90;99.50
14049;DHT22;7099;53.922;10.728;2023-10-13T05:30:29;13.90;99.60
14049;DHT22;7099;53.922;10.728;2023-10-13T05:34:53;14.00;99.70
14049;DHT22;7099;53.922;10.728;2023-10-13T05:39:17;14.00;99.80
14049;DHT22;7099;53.922;10.728;2023-10-13T05:43:47;14.10;99.80
14049;DHT22;7099;53.922;10.728;2023-10-13T05:48:11;14.10;99.80
14049;DHT22;7099;53.922;10.728;2023-10-13T05:52:17;14.20;99.90
14049;DHT22;7099;53.922;10.728;2023-10-13T05:56:47;14.20;99.90
14049;DHT22;7099;53.922;10.728;2023-10-13T06:01:12;14.30;99.90
14049;DHT22;7099;53.922;10.728;2023-10-13T06:05:38;14.30;99.90
14049;DHT22;7099;53.922;10.728;2023-10-13T06:10:02;14.40;99.90
14049;DHT22;7099;53.922;10.728;2023-10-13T06:14:26;14.40;99.90
14049;DHT22;7099;53.922;10.728;2023-10-13T06:18:50;14.50;99.90
14049;DHT22;7099;53.922;10.728;2023-10-13T06:23:14;14.50;99.90
14049;DHT22;7099;53.922;10.728;2023-10-13T06:27:55;14.60;99.90
14049;DHT22;7099;53.922;10.728;2023-10-13T06:32:20;14.70;99.90
14049;DHT22;7099;53.922;10.728;2023-10-13T06:36:31;14.70;99.90
14049;DHT22;7099;53.922;10.728;2023-10-13T06:40:38;14.80;99.90
14049;DHT22;7099;53.922;10.728;2023-10-13T06:44:47;14.90;99.90
14049;DHT22;7099;53.922;10.728;2023-10-13T06:48:53;14.90;99.90
14049;DHT22;7099;53.922;10.728;2023-10-13T06:52:59;15.00;99.90
14049;DHT22;7099;53.922;10.728;2023-10-13T06:57:07;15.10;99.90
14049;DHT22;7099;53.922;10.728;2023-10-13T07:01:16;15.10;99.90
14049;DHT22;7099;53.922;10.728;2023-10-13T07:05:21;15.20;99.90
14049;DHT22;7099;53.922;10.728;2023-10-13T07:09:27;15.30;99.90
14049;DHT22;7099;53.922;10.728;2023-10-13T07:13:39;15.30;99.90
14049;DHT22;7099;53.922;10.728;2023-10-13T07:17:48;15.40;99.90
14049;DHT22;7099;53.922;10.728;2023-10-13T07:22:02;15.50;99.90
14049;DHT22;7099;53.922;10.728;2023-10-13T07:26:28;15.50;99.90
14049;DHT22;7099;53.922;10.728;2023-10-13T07:30:35;15.60;99.90
14049;DHT22;7099;53.922;10.728;2023-10-13T07:35:15;15.60;99.90
14049;DHT22;7099;53.922;10.728;2023-10-13T07:39:29;15.70;99.90
14049;DHT22;7099;53.922;10.728;2023-10-13T07:43:40;15.70;99.90
14049;DHT22;7099;53.922;10.728;2023-10-13T07:47:46;15.80;99.90
14049;DHT22;7099;53.922;10.728;2023-10-13T07:51:51;15.80;99.90
14049;DHT22;7099;53.922;10.728;2023-10-13T07:56:02;15.90;99.90
14049;DHT22;7099;53.922;10.728;2023-10-13T08:00:11;15.90;99.90
14049;DHT22;7099;53.922;10.728;2023-10-13T08:04:30;16.00;99.90
14049;DHT22;7099;53.922;10.728;2023-10-13T08:08:36;16.00;99.90
14049;DHT22;7099;53.922;10.728;2023-10-13T08:12:45;16.10;99.90
14049;DHT22;7099;53.922;10.728;2023-10-13T08:16:51;16.10;99.90
14049;DHT22;7099;53.922;10.728;2023-10-13T08:21:03;16.20;99.90
14049;DHT22;7099;53.922;10.728;2023-10-13T08:25:09;16.30;99.90
14049;DHT22;7099;53.922;10.728;2023-10-13T08:29:25;16.30;99.90
14049;DHT22;7099;53.922;10.728;2023-10-13T08:33:34;16.30;99.90
14049;DHT22;7099;53.922;10.728;2023-10-13T08:37:40;16.40;99.90
14049;DHT22;7099;53.922;10.728;2023-10-13T08:41:51;16.40;99.90
14049;DHT22;7099;53.922;10.728;2023-10-13T08:46:17;16.50;99.90
14049;DHT22;7099;53.922;10.728;2023-10-13T08:54:56;16.50;99.90
14049;DHT22;7099;53.922;10.728;2023-10-13T08:59:28;16.60;99.90
14049;DHT22;7099;53.922;10.728;2023-10-13T09:03:44;16.60;99.90
14049;DHT22;7099;53.922;10.728;2023-10-13T09:07:54;16.60;99.90
14049;DHT22;7099;53.922;10.728;2023-10-13T09:12:17;16.70;99.90
14049;DHT22;7099;53.922;10.728;2023-10-13T09:16:38;16.70;99.90
14049;DHT22;7099;53.922;10.728;2023-10-13T09:20:44;16.70;99.90
14049;DHT22;7099;53.922;10.728;2023-10-13T09:24:51;16.80;99.90
14049;DHT22;7099;53.922;10.728;2023-10-13T09:28:58;16.80;99.90
14049;DHT22;7099;53.922;10.728;2023-10-13T09:33:04;16.80;99.90
14049;DHT22;7099;53.922;10.728;2023-10-13T09:37:13;16.80;99.90
14049;DHT22;7099;53.922;10.728;2023-10-13T09:41:27;16.90;99.90
14049;DHT22;7099;53.922;10.728;2023-10-13T09:45:37;16.90;99.90
14049;DHT22;7099;53.922;10.728;2023-10-13T09:49:46;16.90;99.90
14049;DHT22;7099;53.922;10.728;2023-10-13T09:58:32;16.90;99.90
14049;DHT22;7099;53.922;10.728;2023-10-13T10:02:42;16.90;99.90
14049;DHT22;7099;53.922;10.728;2023-10-13T10:15:47;17.20;99.90
14049;DHT22;7099;53.922;10.728;2023-10-13T10:19:54;17.30;99.90
14049;DHT22;7099;53.922;10.728;2023-10-13T10:24:01;17.50;99.90
14049;DHT22;7099;53.922;10.728;2023-10-13T10:28:18;17.60;99.90
14049;DHT22;7099;53.922;10.728;2023-10-13T10:32:38;17.70;99.90
14049;DHT22;7099;53.922;10.728;2023-10-13T10:36:54;17.60;99.90
14049;DHT22;7099;53.922;10.728;2023-10-13T10:41:02;17.60;99.90
14049;DHT22;7099;53.922;10.728;2023-10-13T10:45:10;17.60;99.90
14049;DHT22;7099;53.922;10.728;2023-10-13T10:49:17;17.60;99.90
14049;DHT22;7099;53.922;10.728;2023-10-13T10:53:36;17.60;99.90
14049;DHT22;7099;53.922;10.728;2023-10-13T10:57:59;17.70;99.90
14049;DHT22;7099;53.922;10.728;2023-10-13T11:02:07;17.70;99.90
14049;DHT22;7099;53.922;10.728;2023-10-13T11:06:14;17.80;99.90
14049;DHT22;7099;53.922;10.728;2023-10-13T11:10:24;17.80;99.90
14049;DHT22;7099;53.922;10.728;2023-10-13T11:14:35;17.80;99.90
14049;DHT22;7099;53.922;10.728;2023-10-13T11:18:40;17.90;99.90
14049;DHT22;7099;53.922;10.728;2023-10-13T11:22:47;17.90;99.90
14049;DHT22;7099;53.922;10.728;2023-10-13T11:26:53;17.90;99.90
14049;DHT22;7099;53.922;10.728;2023-10-13T11:31:00;18.00;99.90
14049;DHT22;7099;53.922;10.728;2023-10-13T11:35:16;18.00;99.90
14049;DHT22;7099;53.922;10.728;2023-10-13T11:39:34;18.00;99.90
14049;DHT22;7099;53.922;10.728;2023-10-13T11:43:49;18.10;99.90
14049;DHT22;7099;53.922;10.728;2023-10-13T11:47:57;18.10;99.90
14049;DHT22;7099;53.922;10.728;2023-10-13T11:52:06;18.20;99.90
14049;DHT22;7099;53.922;10.728;2023-10-13T11:56:21;18.20;99.90
14049;DHT22;7099;53.922;10.728;2023-10-13T12:00:27;18.30;99.90
14049;DHT22;7099;53.922;10.728;2023-10-13T12:04:53;18.30;99.90
14049;DHT22;7099;53.922;10.728;2023-10-13T12:09:07;18.30;99.90
14049;DHT22;7099;53.922;10.728;2023-10-13T12:13:37;18.40;99.90
14049;DHT22;7099;53.922;10.728;2023-10-13T12:17:45;18.40;99.90
14049;DHT22;7099;53.922;10.728;2023-10-13T12:21:51;18.50;99.90
14049;DHT22;7099;53.922;10.728;2023-10-13T12:26:02;18.70;99.90
14049;DHT22;7099;53.922;10.728;2023-10-13T12:30:19;18.80;99.90
14049;DHT22;7099;53.922;10.728;2023-10-13T12:34:41;19.00;99.90
14049;DHT22;7099;53.922;10.728;2023-10-13T12:39:02;19.10;99.90
14049;DHT22;7099;53.922;10.728;2023-10-13T12:43:14;19.30;99.90
14049;DHT22;7099;53.922;10.728;2023-10-13T12:47:38;19.40;99.90
14049;DHT22;7099;53.922;10.728;2023-10-13T12:52:05;19.50;99.90
14049;DHT22;7099;53.922;10.728;2023-10-13T12:56:21;19.50;99.80
14049;DHT22;7099;53.922;10.728;2023-10-13T13:00:31;19.60;99.60
14049;DHT22;7099;53.922;10.728;2023-10-13T13:04:38;19.60;99.70
14049;DHT22;7099;53.922;10.728;2023-10-13T13:08:49;19.60;99.50
14049;DHT22;7099;53.922;10.728;2023-10-13T13:12:54;19.70;99.50
14049;DHT22;7099;53.922;10.728;2023-10-13T13:17:00;19.70;99.40
14049;DHT22;7099;53.922;10.728;2023-10-13T13:21:10;19.80;99.30
14049;DHT22;7099;53.922;10.728;2023-10-13T13:25:28;19.80;99.00
14049;DHT22;7099;53.922;10.728;2023-10-13T13:29:36;20.00;99.10
14049;DHT22;7099;53.922;10.728;2023-10-13T13:33:43;20.00;99.00
14049;DHT22;7099;53.922;10.728;2023-10-13T13:37:48;20.10;98.80
14049;DHT22;7099;53.922;10.728;2023-10-13T13:41:55;20.10;98.60
14049;DHT22;7099;53.922;10.728;2023-10-13T13:46:02;20.20;98.30
14049;DHT22;7099;53.922;10.728;2023-10-13T13:50:08;20.20;98.00
14049;DHT22;7099;53.922;10.728;2023-10-13T13:54:22;20.20;98.10
14049;DHT22;7099;53.922;10.728;2023-10-13T13:58:28;20.30;97.80
14049;DHT22;7099;53.922;10.728;2023-10-13T14:02:34;20.40;97.90
14049;DHT22;7099;53.922;10.728;2023-10-13T14:06:43;20.40;97.90
14049;DHT22;7099;53.922;10.728;2023-10-13T14:10:50;20.40;97.70
14049;DHT22;7099;53.922;10.728;2023-10-13T14:15:14;20.40;97.60
14049;DHT22;7099;53.922;10.728;2023-10-13T14:19:33;20.50;97.20
14049;DHT22;7099;53.922;10.728;2023-10-13T14:23:39;20.60;97.00
14049;DHT22;7099;53.922;10.728;2023-10-13T14:27:45;20.60;96.80
14049;DHT22;7099;53.922;10.728;2023-10-13T14:31:54;20.60;97.00
14049;DHT22;7099;53.922;10.728;2023-10-13T14:35:59;20.60;96.90
14049;DHT22;7099;53.922;10.728;2023-10-13T14:40:06;20.60;96.90
14049;DHT22;7099;53.922;10.728;2023-10-13T14:44:17;20.60;96.90
14049;DHT22;7099;53.922;10.728;2023-10-13T14:48:22;20.50;96.90
14049;DHT22;7099;53.922;10.728;2023-10-13T14:52:30;20.60;96.90
14049;DHT22;7099;53.922;10.728;2023-10-13T14:56:38;20.50;96.70
14049;DHT22;7099;53.922;10.728;2023-10-13T15:00:47;20.50;96.30
14049;DHT22;7099;53.922;10.728;2023-10-13T15:04:52;20.40;95.90
14049;DHT22;7099;53.922;10.728;2023-10-13T15:08:59;20.50;96.00
14049;DHT22;7099;53.922;10.728;2023-10-13T15:13:05;20.50;95.90
14049;DHT22;7099;53.922;10.728;2023-10-13T15:17:11;20.50;96.00
14049;DHT22;7099;53.922;10.728;2023-10-13T15:21:26;20.50;95.90
14049;DHT22;7099;53.922;10.728;2023-10-13T15:25:46;20.50;95.70
14049;DHT22;7099;53.922;10.728;2023-10-13T15:29:58;20.40;95.60
14049;DHT22;7099;53.922;10.728;2023-10-13T15:34:05;20.40;95.70
14049;DHT22;7099;53.922;10.728;2023-10-13T15:38:19;20.40;95.70
14049;DHT22;7099;53.922;10.728;2023-10-13T15:42:26;20.40;95.70
14049;DHT22;7099;53.922;10.728;2023-10-13T15:46:32;20.30;95.80
14049;DHT22;7099;53.922;10.728;2023-10-13T15:51:01;20.30;95.80
14049;DHT22;7099;53.922;10.728;2023-10-13T15:55:09;20.30;95.90
14049;DHT22;7099;53.922;10.728;2023-10-13T15:59:18;20.30;95.80
14049;DHT22;7099;53.922;10.728;2023-10-13T16:03:24;20.30;95.80
14049;DHT22;7099;53.922;10.728;2023-10-13T16:07:32;20.30;95.80
14049;DHT22;7099;53.922;10.728;2023-10-13T16:11:40;20.30;95.60
14049;DHT22;7099;53.922;10.728;2023-10-13T16:15:50;20.30;95.60
14049;DHT22;7099;53.922;10.728;2023-10-13T16:19:57;20.30;95.50
14049;DHT22;7099;53.922;10.728;2023-10-13T16:24:03;20.30;95.30
14049;DHT22;7099;53.922;10.728;2023-10-13T16:28:10;20.20;95.30
14049;DHT22;7099;53.922;10.728;2023-10-13T16:32:17;20.30;95.30
14049;DHT22;7099;53.922;10.728;2023-10-13T16:36:23;20.20;95.40
14049;DHT22;7099;53.922;10.728;2023-10-13T16:40:31;20.30;95.10
14049;DHT22;7099;53.922;10.728;2023-10-13T16:44:39;20.30;95.10
14049;DHT22;7099;53.922;10.728;2023-10-13T16:48:44;20.30;95.10
14049;DHT22;7099;53.922;10.728;2023-10-13T16:52:53;20.30;94.90
14049;DHT22;7099;53.922;10.728;2023-10-13T16:57:02;20.30;94.80
14049;DHT22;7099;53.922;10.728;2023-10-13T17:01:12;20.30;94.70
14049;DHT22;7099;53.922;10.728;2023-10-13T17:05:18;20.30;94.50
14049;DHT22;7099;53.922;10.728;2023-10-13T17:09:26;20.30;94.50
14049;DHT22;7099;53.922;10.728;2023-10-13T17:13:32;20.40;94.40
14049;DHT22;7099;53.922;10.728;2023-10-13T17:17:38;20.30;94.30
14049;DHT22;7099;53.922;10.728;2023-10-13T17:21:44;20.40;94.40
14049;DHT22;7099;53.922;10.728;2023-10-13T17:25:49;20.30;94.50
14049;DHT22;7099;53.922;10.728;2023-10-13T17:29:55;20.30;95.00
14049;DHT22;7099;53.922;10.728;2023-10-13T17:34:00;20.20;95.30
14049;DHT22;7099;53.922;10.728;2023-10-13T17:38:07;20.10;95.70
14049;DHT22;7099;53.922;10.728;2023-10-13T17:42:15;20.10;96.00
14049;DHT22;7099;53.922;10.728;2023-10-13T17:46:21;19.90;96.30
14049;DHT22;7099;53.922;10.728;2023-10-13T17:50:28;19.80;96.60
14049;DHT22;7099;53.922;10.728;2023-10-13T17:54:36;19.70;96.90
14049;DHT22;7099;53.922;10.728;2023-10-13T17:58:41;19.60;97.00
14049;DHT22;7099;53.922;10.728;2023-10-13T18:02:48;19.50;97.20
14049;DHT22;7099;53.922;10.728;2023-10-13T18:06:57;19.40;97.40
14049;DHT22;7099;53.922;10.728;2023-10-13T18:11:02;19.30;97.50
14049;DHT22;7099;53.922;10.728;2023-10-13T18:15:09;19.30;97.60
14049;DHT22;7099;53.922;10.728;2023-10-13T18:19:15;19.20;97.60
14049;DHT22;7099;53.922;10.728;2023-10-13T18:23:21;19.20;97.60
14049;DHT22;7099;53.922;10.728;2023-10-13T18:27:28;19.10;97.60
14049;DHT22;7099;53.922;10.728;2023-10-13T18:31:33;19.20;97.60
14049;DHT22;7099;53.922;10.728;2023-10-13T18:35:39;19.10;97.50
14049;DHT22;7099;53.922;10.728;2023-10-13T18:39:45;19.10;97.50
14049;DHT22;7099;53.922;10.728;2023-10-13T18:43:52;19.10;97.40
14049;DHT22;7099;53.922;10.728;2023-10-13T18:47:59;19.10;97.40
14049;DHT22;7099;53.922;10.728;2023-10-13T18:52:04;19.10;97.10
14049;DHT22;7099;53.922;10.728;2023-10-13T18:56:11;19.10;97.00
14049;DHT22;7099;53.922;10.728;2023-10-13T19:00:17;19.10;96.80
14049;DHT22;7099;53.922;10.728;2023-10-13T19:04:28;19.10;96.60
14049;DHT22;7099;53.922;10.728;2023-10-13T19:08:34;19.10;96.60
14049;DHT22;7099;53.922;10.728;2023-10-13T19:12:40;19.10;96.60
14049;DHT22;7099;53.922;10.728;2023-10-13T19:16:49;19.00;96.50
14049;DHT22;7099;53.922;10.728;2023-10-13T19:20:56;19.00;96.50
14049;DHT22;7099;53.922;10.728;2023-10-13T19:25:02;18.90;96.40
14049;DHT22;7099;53.922;10.728;2023-10-13T19:29:08;18.90;96.40
14049;DHT22;7099;53.922;10.728;2023-10-13T19:33:13;18.90;96.40
14049;DHT22;7099;53.922;10.728;2023-10-13T19:37:19;18.90;96.40
14049;DHT22;7099;53.922;10.728;2023-10-13T19:41:24;18.80;96.40
14049;DHT22;7099;53.922;10.728;2023-10-13T19:45:30;18.80;96.40
14049;DHT22;7099;53.922;10.728;2023-10-13T19:49:36;18.80;96.30
14049;DHT22;7099;53.922;10.728;2023-10-13T19:53:45;18.90;96.30
14049;DHT22;7099;53.922;10.728;2023-10-13T19:57:52;18.80;96.30
14049;DHT22;7099;53.922;10.728;2023-10-13T20:01:57;18.80;96.30
14049;DHT22;7099;53.922;10.728;2023-10-13T20:06:03;18.90;96.30
14049;DHT22;7099;53.922;10.728;2023-10-13T20:10:08;18.90;96.30
14049;DHT22;7099;53.922;10.728;2023-10-13T20:14:14;18.90;96.30
14049;DHT22;7099;53.922;10.728;2023-10-13T20:18:19;18.90;96.30
14049;DHT22;7099;53.922;10.728;2023-10-13T20:22:25;18.90;96.30
14049;DHT22;7099;53.922;10.728;2023-10-13T20:26:31;18.90;96.30
14049;DHT22;7099;53.922;10.728;2023-10-13T20:30:47;18.90;96.30
14049;DHT22;7099;53.922;10.728;2023-10-13T20:34:52;18.90;96.20
14049;DHT22;7099;53.922;10.728;2023-10-13T20:38:59;18.90;96.20
14049;DHT22;7099;53.922;10.728;2023-10-13T20:43:06;18.90;96.10
14049;DHT22;7099;53.922;10.728;2023-10-13T20:47:16;18.90;96.00
14049;DHT22;7099;53.922;10.728;2023-10-13T20:51:22;18.90;95.80
14049;DHT22;7099;53.922;10.728;2023-10-13T20:55:29;19.00;95.80
14049;DHT22;7099;53.922;10.728;2023-10-13T20:59:36;19.00;95.60
14049;DHT22;7099;53.922;10.728;2023-10-13T21:03:44;19.00;95.50
14049;DHT22;7099;53.922;10.728;2023-10-13T21:07:54;19.00;95.20
14049;DHT22;7099;53.922;10.728;2023-10-13T21:11:59;19.00;94.90
14049;DHT22;7099;53.922;10.728;2023-10-13T21:16:10;19.00;94.60
14049;DHT22;7099;53.922;10.728;2023-10-13T21:20:16;19.00;94.60
14049;DHT22;7099;53.922;10.728;2023-10-13T21:24:21;19.00;94.50
14049;DHT22;7099;53.922;10.728;2023-10-13T21:28:27;19.00;94.40
14049;DHT22;7099;53.922;10.728;2023-10-13T21:32:32;18.90;94.60
14049;DHT22;7099;53.922;10.728;2023-10-13T21:36:38;18.80;94.70
14049;DHT22;7099;53.922;10.728;2023-10-13T21:40:43;18.80;94.80
14049;DHT22;7099;53.922;10.728;2023-10-13T21:44:48;18.80;94.70
14049;DHT22;7099;53.922;10.728;2023-10-13T21:49:00;18.70;94.80
14049;DHT22;7099;53.922;10.728;2023-10-13T21:53:12;18.70;94.80
14049;DHT22;7099;53.922;10.728;2023-10-13T21:57:18;18.70;94.90
14049;DHT22;7099;53.922;10.728;2023-10-13T22:01:24;18.60;95.00
14049;DHT22;7099;53.922;10.728;2023-10-13T22:05:38;18.60;95.00
14049;DHT22;7099;53.922;10.728;2023-10-13T22:09:44;18.60;95.10
14049;DHT22;7099;53.922;10.728;2023-10-13T22:13:51;18.50;95.10
14049;DHT22;7099;53.922;10.728;2023-10-13T22:17:56;18.50;95.20
14049;DHT22;7099;53.922;10.728;2023-10-13T22:22:02;18.40;95.20
14049;DHT22;7099;53.922;10.728;2023-10-13T22:26:11;18.40;95.40
14049;DHT22;7099;53.922;10.728;2023-10-13T22:30:17;18.40;95.40
14049;DHT22;7099;53.922;10.728;2023-10-13T22:34:23;18.40;95.40
14049;DHT22;7099;53.922;10.728;2023-10-13T22:38:29;18.40;95.40
14049;DHT22;7099;53.922;10.728;2023-10-13T22:42:35;18.30;95.50
14049;DHT22;7099;53.922;10.728;2023-10-13T22:46:40;18.20;95.60
14049;DHT22;7099;53.922;10.728;2023-10-13T22:50:46;18.20;96.00
14049;DHT22;7099;53.922;10.728;2023-10-13T22:54:52;18.20;95.80
14049;DHT22;7099;53.922;10.728;2023-10-13T22:58:57;18.10;96.00
14049;DHT22;7099;53.922;10.728;2023-10-13T23:03:03;18.10;96.10
14049;DHT22;7099;53.922;10.728;2023-10-13T23:07:13;18.00;96.30
14049;DHT22;7099;53.922;10.728;2023-10-13T23:11:27;18.00;96.40
14049;DHT22;7099;53.922;10.728;2023-10-13T23:15:45;17.90;96.50
14049;DHT22;7099;53.922;10.728;2023-10-13T23:19:54;17.90;96.60
14049;DHT22;7099;53.922;10.728;2023-10-13T23:23:59;17.90;96.60
14049;DHT22;7099;53.922;10.728;2023-10-13T23:28:08;17.90;96.70
14049;DHT22;7099;53.922;10.728;2023-10-13T23:32:33;17.90;96.80
14049;DHT22;7099;53.922;10.728;2023-10-13T23:36:39;17.90;96.90
14049;DHT22;7099;53.922;10.728;2023-10-13T23:40:47;17.90;96.90
14049;DHT22;7099;53.922;10.728;2023-10-13T23:44:53;17.90;96.90
14049;DHT22;7099;53.922;10.728;2023-10-13T23:49:11;17.90;97.00
14049;DHT22;7099;53.922;10.728;2023-10-13T23:53:22;17.90;97.20
14049;DHT22;7099;53.922;10.728;2023-10-13T23:57:29;17.90;97.40
